Time;durP1;ratioP1;P1;durP2;ratioP2;P2;SDS_P1;SDS_P2;PMS_P1;PMS_P2;Temp;Humidity;BMP_temperature;BMP_pressure;BME280_temperature;BME280_humidity;BME280_pressure;Samples;Min_cycle;Max_cycle;Signal;HPM_P1;HPM_P2
2022/01/05 00:01:33;;;;;;;7.40;3.55;;;;;;;;;;5061281;28;20093;-79
2022/01/05 00:03:59;;;;;;;11.52;3.70;;;;;;;;;;5043646;28;20136;-79
2022/01/05 00:06:25;;;;;;;11.02;4.13;;;;;;;;;;5060163;28;20048;-80
2022/01/05 00:08:51;;;;;;;10.43;3.95;;;;;;;;;;5075042;28;20439;-80
2022/01/05 00:11:17;;;;;;;11.07;4.25;;;;;;;;;;5048190;28;20045;-79
2022/01/05 00:13:43;;;;;;;10.48;4.40;;;;;;;;;;5050631;28;20463;-80
2022/01/05 00:16:09;;;;;;;13.57;4.07;;;;;;;;;;5028090;28;20044;-80
2022/01/05 00:18:36;;;;;;;14.73;3.25;;;;;;;;;;5044634;28;20087;-79
2022/01/05 00:21:04;;;;;;;12.15;3.00;;;;;;;;;;5029327;28;20036;-78
2022/01/05 00:23:30;;;;;;;9.10;3.10;;;;;;;;;;5049518;28;20205;-80
2022/01/05 00:25:56;;;;;;;10.02;3.13;;;;;;;;;;5046802;28;20037;-79
2022/01/05 00:28:22;;;;;;;10.13;3.13;;;;;;;;;;5048215;28;20124;-79
2022/01/05 00:30:48;;;;;;;8.70;3.40;;;;;;;;;;5046808;28;20037;-78
2022/01/05 00:33:15;;;;;;;13.85;3.40;;;;;;;;;;5032081;28;20041;-78
2022/01/05 00:35:41;;;;;;;8.57;4.03;;;;;;;;;;5067907;28;20063;-79
2022/01/05 00:38:07;;;;;;;9.50;4.07;;;;;;;;;;5052342;28;20033;-78
2022/01/05 00:40:33;;;;;;;10.98;4.57;;;;;;;;;;5056759;28;20033;-79
2022/01/05 00:42:59;;;;;;;11.23;4.90;;;;;;;;;;5068060;28;20038;-79
2022/01/05 00:45:25;;;;;;;13.13;5.20;;;;;;;;;;5033931;28;20021;-79
2022/01/05 00:47:51;;;;;;;14.00;5.60;;;;;;;;;;5033251;28;20037;-78
2022/01/05 00:50:17;;;;;;;18.90;5.95;;;;;;;;;;5063849;28;20036;-80
2022/01/05 00:52:43;;;;;;;12.90;5.72;;;;;;;;;;5045521;28;20697;-81
2022/01/05 00:55:09;;;;;;;13.23;5.95;;;;;;;;;;5045430;28;20033;-80
2022/01/05 00:57:36;;;;;;;12.32;5.85;;;;;;;;;;5028935;28;20049;-81
2022/01/05 01:00:02;;;;;;;15.35;5.80;;;;;;;;;;5062830;28;20047;-81
2022/01/05 01:02:28;;;;;;;11.77;6.45;;;;;;;;;;5029301;28;20098;-80
2022/01/05 01:04:54;;;;;;;15.40;7.18;;;;;;;;;;5067094;28;20088;-80
2022/01/05 01:07:20;;;;;;;17.63;7.68;;;;;;;;;;5052442;28;20083;-80
2022/01/05 01:09:46;;;;;;;17.02;8.38;;;;;;;;;;5042163;28;20032;-79
2022/01/05 01:12:12;;;;;;;18.08;8.27;;;;;;;;;;5035369;28;20047;-79
2022/01/05 01:14:38;;;;;;;14.77;9.00;;;;;;;;;;5034460;28;20070;-79
2022/01/05 01:17:04;;;;;;;17.05;9.68;;;;;;;;;;5043228;28;20036;-79
2022/01/05 01:19:30;;;;;;;27.27;10.57;;;;;;;;;;5036256;28;20061;-80
2022/01/05 01:21:58;;;;;;;22.20;10.85;;;;;;;;;;5028788;28;20419;-79
2022/01/05 01:24:24;;;;;;;24.42;10.35;;;;;;;;;;5047089;28;20064;-81
2022/01/05 01:26:50;;;;;;;26.85;9.82;;;;;;;;;;5057048;28;20052;-79
2022/01/05 01:29:16;;;;;;;24.00;9.68;;;;;;;;;;5063164;28;20038;-78
2022/01/05 01:31:42;;;;;;;23.00;9.55;;;;;;;;;;5036489;28;20037;-80
2022/01/05 01:34:08;;;;;;;21.92;11.00;;;;;;;;;;5050953;28;20111;-80
2022/01/05 01:36:34;;;;;;;29.90;12.02;;;;;;;;;;5051089;28;20087;-79
2022/01/05 01:39:00;;;;;;;27.80;13.68;;;;;;;;;;5051469;28;20049;-80
2022/01/05 01:41:26;;;;;;;27.63;14.48;;;;;;;;;;5069698;28;20041;-79
2022/01/05 01:43:52;;;;;;;34.47;15.88;;;;;;;;;;5051105;28;20047;-79
2022/01/05 01:46:17;;;;;;;31.58;15.80;;;;;;;;;;5050421;28;20040;-80
2022/01/05 01:48:44;;;;;;;34.35;15.27;;;;;;;;;;5047162;28;20080;-79
2022/01/05 01:51:10;;;;;;;30.75;15.80;;;;;;;;;;5033450;28;20497;-79
2022/01/05 01:53:36;;;;;;;28.85;14.30;;;;;;;;;;5036380;28;20119;-81
2022/01/05 01:56:04;;;;;;;37.20;16.15;;;;;;;;;;5037852;28;20049;-80
2022/01/05 01:58:34;;;;;;;32.65;15.40;;;;;;;;;;5040788;28;20038;-80
2022/01/05 02:01:00;;;;;;;36.58;15.30;;;;;;;;;;5058604;28;20052;-77
2022/01/05 02:03:26;;;;;;;33.70;15.35;;;;;;;;;;5041114;28;20069;-78
2022/01/05 02:05:52;;;;;;;37.45;15.88;;;;;;;;;;5042162;28;20017;-80
2022/01/05 02:08:18;;;;;;;35.67;15.55;;;;;;;;;;5060587;28;20071;-79
2022/01/05 02:10:44;;;;;;;32.63;16.33;;;;;;;;;;5058355;28;20028;-78
2022/01/05 02:13:10;;;;;;;34.50;15.95;;;;;;;;;;5042025;28;20048;-78
2022/01/05 02:15:36;;;;;;;35.90;18.05;;;;;;;;;;5043850;28;20041;-79
2022/01/05 02:20:28;;;;;;;37.70;18.98;;;;;;;;;;5058412;28;20068;-79
2022/01/05 02:22:54;;;;;;;40.13;19.83;;;;;;;;;;5041842;28;20033;-79
2022/01/05 02:25:20;;;;;;;46.60;20.33;;;;;;;;;;5058052;28;20033;-78
2022/01/05 02:27:47;;;;;;;47.60;22.13;;;;;;;;;;5041092;28;20071;-78
2022/01/05 02:30:14;;;;;;;45.85;24.13;;;;;;;;;;5041292;28;20041;-79
2022/01/05 02:32:40;;;;;;;51.67;25.38;;;;;;;;;;5038852;28;20068;-77
2022/01/05 02:35:06;;;;;;;58.47;27.42;;;;;;;;;;5055485;28;20037;-77
2022/01/05 02:37:32;;;;;;;56.85;27.13;;;;;;;;;;5051123;28;20045;-78
2022/01/05 02:39:58;;;;;;;57.38;28.45;;;;;;;;;;5053444;28;20045;-77
2022/01/05 02:42:33;;;;;;;57.13;29.20;;;;;;;;;;5037176;28;20045;-78
2022/01/05 02:44:59;;;;;;;54.63;29.00;;;;;;;;;;5056531;28;20064;-79
2022/01/05 02:47:25;;;;;;;56.00;29.92;;;;;;;;;;5056459;28;20037;-81
2022/01/05 02:49:51;;;;;;;60.40;29.85;;;;;;;;;;5037219;28;20060;-79
2022/01/05 02:52:17;;;;;;;59.67;29.88;;;;;;;;;;5053865;28;20029;-79
2022/01/05 02:54:43;;;;;;;56.60;29.45;;;;;;;;;;5058440;28;20045;-80
2022/01/05 02:57:09;;;;;;;52.85;28.00;;;;;;;;;;5058280;28;20049;-79
2022/01/05 02:59:35;;;;;;;57.42;28.75;;;;;;;;;;5040524;28;20041;-78
2022/01/05 03:02:01;;;;;;;52.90;26.33;;;;;;;;;;5054934;28;20120;-78
2022/01/05 03:04:27;;;;;;;54.80;28.85;;;;;;;;;;5038502;28;20033;-79
2022/01/05 03:06:53;;;;;;;63.67;28.33;;;;;;;;;;5055140;28;20123;-77
2022/01/05 03:09:19;;;;;;;52.33;26.05;;;;;;;;;;5054668;28;20444;-80
2022/01/05 03:11:46;;;;;;;50.28;27.50;;;;;;;;;;5042098;28;20048;-82
2022/01/05 03:14:11;;;;;;;55.53;26.75;;;;;;;;;;5059249;28;20041;-79
2022/01/05 03:16:37;;;;;;;51.30;26.23;;;;;;;;;;5058252;28;20113;-82
2022/01/05 03:19:03;;;;;;;50.90;26.48;;;;;;;;;;5041095;28;20033;-80
2022/01/05 03:21:29;;;;;;;51.97;24.58;;;;;;;;;;5040199;28;20033;-80
2022/01/05 03:23:55;;;;;;;45.00;23.25;;;;;;;;;;5055782;28;20033;-80
2022/01/05 03:26:21;;;;;;;46.92;23.85;;;;;;;;;;5039512;28;20200;-80
2022/01/05 03:28:47;;;;;;;50.58;23.67;;;;;;;;;;5058449;28;20041;-80
2022/01/05 03:31:13;;;;;;;44.45;23.08;;;;;;;;;;5058441;28;20093;-81
2022/01/05 03:33:39;;;;;;;45.65;22.77;;;;;;;;;;5039969;28;20098;-78
2022/01/05 03:36:05;;;;;;;48.30;25.08;;;;;;;;;;5039487;28;20089;-80
2022/01/05 03:38:31;;;;;;;48.78;23.25;;;;;;;;;;5054924;28;20041;-80
2022/01/05 03:40:57;;;;;;;41.45;21.27;;;;;;;;;;5055721;28;20033;-81
2022/01/05 03:43:23;;;;;;;45.38;23.75;;;;;;;;;;5056807;28;20116;-80
2022/01/05 03:45:51;;;;;;;51.53;22.88;;;;;;;;;;5056444;28;20045;-78
2022/01/05 03:48:18;;;;;;;43.25;23.20;;;;;;;;;;5028026;28;20045;-81
2022/01/05 03:50:44;;;;;;;42.00;21.10;;;;;;;;;;5026412;28;20061;-81
2022/01/05 03:53:10;;;;;;;39.22;20.38;;;;;;;;;;5041871;28;20037;-81
2022/01/05 03:55:36;;;;;;;40.70;18.90;;;;;;;;;;5042479;28;20033;-82
2022/01/05 03:58:02;;;;;;;39.38;18.90;;;;;;;;;;5042370;28;20061;-82
2022/01/05 04:00:29;;;;;;;42.13;19.58;;;;;;;;;;5041673;28;20112;-80
2022/01/05 04:02:56;;;;;;;43.00;17.98;;;;;;;;;;5025510;28;20091;-79
2022/01/05 04:05:22;;;;;;;43.25;16.60;;;;;;;;;;5041463;28;20052;-79
2022/01/05 04:07:49;;;;;;;37.15;16.77;;;;;;;;;;5025708;28;20041;-79
2022/01/05 04:10:15;;;;;;;34.25;15.32;;;;;;;;;;5042635;28;20346;-81
2022/01/05 04:12:41;;;;;;;35.65;12.50;;;;;;;;;;5024550;28;20049;-79
2022/01/05 04:15:08;;;;;;;30.15;12.60;;;;;;;;;;5042783;28;20041;-80
2022/01/05 04:17:34;;;;;;;29.13;12.27;;;;;;;;;;5025406;28;20192;-79
2022/01/05 04:20:00;;;;;;;28.05;11.95;;;;;;;;;;5025373;28;20049;-80
2022/01/05 04:22:26;;;;;;;25.75;11.05;;;;;;;;;;5042146;28;20041;-80
2022/01/05 04:24:52;;;;;;;29.38;10.57;;;;;;;;;;5042917;28;20049;-79
2022/01/05 04:27:19;;;;;;;23.23;10.25;;;;;;;;;;5043605;28;20464;-79
2022/01/05 04:29:45;;;;;;;34.20;11.10;;;;;;;;;;5026428;28;20453;-80
2022/01/05 04:32:11;;;;;;;25.77;9.05;;;;;;;;;;5025643;28;20075;-80
2022/01/05 04:34:37;;;;;;;25.15;8.60;;;;;;;;;;5025710;28;20037;-80
2022/01/05 04:37:03;;;;;;;27.60;9.07;;;;;;;;;;5043549;28;20041;-81
2022/01/05 04:39:29;;;;;;;22.75;8.63;;;;;;;;;;5033489;28;20079;-80
2022/01/05 04:41:55;;;;;;;33.53;9.25;;;;;;;;;;5051465;28;20037;-80
2022/01/05 04:44:21;;;;;;;27.08;7.13;;;;;;;;;;5053502;28;20045;-79
2022/01/05 04:46:47;;;;;;;31.42;7.25;;;;;;;;;;5040435;28;20464;-80
2022/01/05 04:49:13;;;;;;;24.90;6.55;;;;;;;;;;5038344;28;20045;-79
2022/01/05 04:51:39;;;;;;;23.48;6.47;;;;;;;;;;5024748;28;20060;-79
2022/01/05 04:54:05;;;;;;;22.73;6.65;;;;;;;;;;5042327;28;20044;-79
2022/01/05 04:56:31;;;;;;;23.50;6.75;;;;;;;;;;5024077;28;20053;-79
2022/01/05 04:58:57;;;;;;;21.95;6.30;;;;;;;;;;5040267;28;20041;-81
2022/01/05 05:01:24;;;;;;;22.13;6.07;;;;;;;;;;5040536;28;20037;-78
2022/01/05 05:03:50;;;;;;;16.67;5.50;;;;;;;;;;5023464;28;20041;-79
2022/01/05 05:06:16;;;;;;;28.13;6.10;;;;;;;;;;5041235;28;20099;-80
2022/01/05 05:08:42;;;;;;;22.33;5.40;;;;;;;;;;5024311;28;20049;-79
2022/01/05 05:11:08;;;;;;;22.95;5.40;;;;;;;;;;5040130;28;20080;-78
2022/01/05 05:13:34;;;;;;;20.63;5.13;;;;;;;;;;5022669;28;20521;-78
2022/01/05 05:16:01;;;;;;;25.15;5.15;;;;;;;;;;5023396;28;20120;-80
2022/01/05 05:18:27;;;;;;;21.00;5.03;;;;;;;;;;5041121;28;20115;-79
2022/01/05 05:20:53;;;;;;;23.45;4.82;;;;;;;;;;5025427;28;20049;-79
2022/01/05 05:23:19;;;;;;;20.85;5.20;;;;;;;;;;5043662;28;20041;-79
2022/01/05 05:25:45;;;;;;;16.48;4.45;;;;;;;;;;5041451;28;20038;-79
2022/01/05 05:28:11;;;;;;;17.58;4.25;;;;;;;;;;5024314;28;20042;-79
2022/01/05 05:30:37;;;;;;;19.40;4.53;;;;;;;;;;5040745;28;20096;-80
2022/01/05 05:33:04;;;;;;;18.27;4.07;;;;;;;;;;5024509;28;20375;-80
2022/01/05 05:35:30;;;;;;;26.27;3.92;;;;;;;;;;5024269;28;20048;-79
2022/01/05 05:37:56;;;;;;;28.50;4.47;;;;;;;;;;5040872;28;20373;-79
2022/01/05 05:40:22;;;;;;;30.20;3.78;;;;;;;;;;5041767;28;20041;-81
2022/01/05 05:42:48;;;;;;;15.30;3.50;;;;;;;;;;5024516;28;20045;-79
2022/01/05 05:45:14;;;;;;;15.15;3.05;;;;;;;;;;5024975;28;20037;-80
2022/01/05 05:47:41;;;;;;;13.27;4.05;;;;;;;;;;5040820;28;20055;-81
2022/01/05 05:50:07;;;;;;;20.80;4.10;;;;;;;;;;5022554;28;20088;-79
2022/01/05 05:52:33;;;;;;;22.27;4.38;;;;;;;;;;5040791;28;20045;-79
2022/01/05 05:54:59;;;;;;;20.77;4.03;;;;;;;;;;5038595;28;20115;-78
2022/01/05 05:57:25;;;;;;;24.00;3.95;;;;;;;;;;5038417;28;20104;-77
2022/01/05 05:59:51;;;;;;;19.70;4.60;;;;;;;;;;5022640;28;20045;-81
2022/01/05 06:02:17;;;;;;;19.95;4.45;;;;;;;;;;5041511;28;20437;-77
2022/01/05 06:04:43;;;;;;;20.58;3.83;;;;;;;;;;5038668;28;20044;-78
2022/01/05 06:07:09;;;;;;;20.30;4.97;;;;;;;;;;5022351;28;20042;-79
2022/01/05 06:09:35;;;;;;;19.10;4.75;;;;;;;;;;5033661;28;20051;-78
2022/01/05 06:12:01;;;;;;;22.05;4.50;;;;;;;;;;5035672;28;20056;-82
2022/01/05 06:14:27;;;;;;;20.02;4.78;;;;;;;;;;5027627;28;20041;-80
2022/01/05 06:16:53;;;;;;;23.98;4.70;;;;;;;;;;5029490;28;20045;-81
2022/01/05 06:19:19;;;;;;;18.83;4.88;;;;;;;;;;5029920;28;20041;-79
2022/01/05 06:21:45;;;;;;;19.90;4.43;;;;;;;;;;5050916;28;20064;-79
2022/01/05 06:24:12;;;;;;;24.63;4.80;;;;;;;;;;5049013;28;20045;-78
2022/01/05 06:26:38;;;;;;;20.27;4.93;;;;;;;;;;5031806;28;20061;-77
2022/01/05 06:29:04;;;;;;;21.90;4.78;;;;;;;;;;5044096;28;20041;-77
2022/01/05 06:31:30;;;;;;;18.38;4.65;;;;;;;;;;5045218;28;20037;-78
2022/01/05 06:33:56;;;;;;;23.70;4.70;;;;;;;;;;5043759;28;20085;-78
2022/01/05 06:36:22;;;;;;;19.35;4.82;;;;;;;;;;5050671;28;20373;-78
2022/01/05 06:38:51;;;;;;;18.17;4.32;;;;;;;;;;5038984;28;20063;-79
2022/01/05 06:41:17;;;;;;;20.75;4.45;;;;;;;;;;5047442;28;20085;-79
2022/01/05 06:43:44;;;;;;;25.58;4.38;;;;;;;;;;5037280;28;20037;-78
2022/01/05 06:46:12;;;;;;;21.75;4.90;;;;;;;;;;5054610;28;20037;-78
2022/01/05 06:48:38;;;;;;;20.08;4.45;;;;;;;;;;5061503;28;20067;-77
2022/01/05 06:51:04;;;;;;;19.15;4.40;;;;;;;;;;5045645;28;20037;-79
2022/01/05 06:53:30;;;;;;;24.27;5.32;;;;;;;;;;5028744;28;20049;-78
2022/01/05 06:55:56;;;;;;;22.33;5.32;;;;;;;;;;5035827;28;20056;-77
2022/01/05 06:58:22;;;;;;;23.60;5.30;;;;;;;;;;5059808;28;20048;-77
2022/01/05 07:00:48;;;;;;;23.17;5.47;;;;;;;;;;5049071;28;20040;-80
2022/01/05 07:03:14;;;;;;;15.95;4.72;;;;;;;;;;5047064;28;20057;-79
2022/01/05 07:05:40;;;;;;;18.83;4.97;;;;;;;;;;5064568;28;20044;-79
2022/01/05 07:08:07;;;;;;;25.70;5.18;;;;;;;;;;5030457;28;20048;-80
2022/01/05 07:10:33;;;;;;;33.28;5.82;;;;;;;;;;5027456;28;20044;-78
2022/01/05 07:12:58;;;;;;;22.58;5.03;;;;;;;;;;5060903;28;20045;-79
2022/01/05 07:15:25;;;;;;;22.80;5.32;;;;;;;;;;5045329;28;20151;-80
2022/01/05 07:17:51;;;;;;;22.27;5.28;;;;;;;;;;5028891;28;20045;-79
2022/01/05 07:20:17;;;;;;;18.20;5.30;;;;;;;;;;5060513;28;20119;-78
2022/01/05 07:22:43;;;;;;;21.65;5.20;;;;;;;;;;5043041;28;20424;-80
2022/01/05 07:25:09;;;;;;;19.45;5.50;;;;;;;;;;5027310;28;20044;-78
2022/01/05 07:27:36;;;;;;;21.25;6.30;;;;;;;;;;5026073;28;20045;-80
2022/01/05 07:30:02;;;;;;;17.38;5.43;;;;;;;;;;5026655;28;20071;-81
2022/01/05 07:32:28;;;;;;;30.58;5.72;;;;;;;;;;5026888;28;20072;-79
2022/01/05 07:34:55;;;;;;;23.73;5.35;;;;;;;;;;5027120;28;20044;-78
2022/01/05 07:37:20;;;;;;;20.52;5.35;;;;;;;;;;5025414;28;20041;-80
2022/01/05 07:39:46;;;;;;;23.98;5.40;;;;;;;;;;5042190;28;20468;-79
2022/01/05 07:42:13;;;;;;;26.77;5.72;;;;;;;;;;5042683;28;20045;-80
2022/01/05 07:44:39;;;;;;;23.90;5.63;;;;;;;;;;5066788;28;20056;-79
2022/01/05 07:47:05;;;;;;;25.25;6.00;;;;;;;;;;5045149;28;20032;-78
2022/01/05 07:49:31;;;;;;;19.63;6.50;;;;;;;;;;5061898;28;20118;-78
2022/01/05 07:51:57;;;;;;;24.75;5.93;;;;;;;;;;5075554;28;20045;-79
2022/01/05 07:54:23;;;;;;;20.80;5.80;;;;;;;;;;5057637;28;20047;-79
2022/01/05 07:56:49;;;;;;;21.95;5.43;;;;;;;;;;5060961;28;20035;-79
2022/01/05 07:59:15;;;;;;;19.73;6.10;;;;;;;;;;5059426;28;20045;-78
2022/01/05 08:01:41;;;;;;;19.77;5.95;;;;;;;;;;5055156;28;20041;-79
2022/01/05 08:04:07;;;;;;;22.77;6.78;;;;;;;;;;5069336;28;20037;-81
2022/01/05 08:06:33;;;;;;;24.15;6.20;;;;;;;;;;5050775;28;20093;-79
2022/01/05 08:09:02;;;;;;;19.02;5.60;;;;;;;;;;5034838;28;20041;-79
2022/01/05 08:11:28;;;;;;;23.80;6.18;;;;;;;;;;5053942;28;20044;-82
2022/01/05 08:13:55;;;;;;;18.20;5.45;;;;;;;;;;5055418;28;20039;-80
2022/01/05 08:16:21;;;;;;;23.75;5.60;;;;;;;;;;5055996;28;20041;-80
2022/01/05 08:18:49;;;;;;;24.45;5.82;;;;;;;;;;5039374;28;20102;-80
2022/01/05 08:21:16;;;;;;;25.45;6.07;;;;;;;;;;5037682;28;20051;-80
2022/01/05 08:23:42;;;;;;;18.85;5.82;;;;;;;;;;5047257;28;20062;-81
2022/01/05 08:26:08;;;;;;;20.08;5.43;;;;;;;;;;5047152;28;20044;-80
2022/01/05 08:28:35;;;;;;;22.95;5.90;;;;;;;;;;5035832;28;20036;-78
2022/01/05 08:31:01;;;;;;;29.73;6.38;;;;;;;;;;5056479;28;20025;-79
2022/01/05 08:33:27;;;;;;;24.13;5.50;;;;;;;;;;5037966;28;20074;-79
2022/01/05 08:35:54;;;;;;;27.08;6.10;;;;;;;;;;5074414;28;20040;-78
2022/01/05 08:38:20;;;;;;;24.92;5.82;;;;;;;;;;5057584;28;20037;-79
2022/01/05 08:40:46;;;;;;;20.30;5.90;;;;;;;;;;5038096;28;20041;-79
2022/01/05 08:43:13;;;;;;;21.98;5.72;;;;;;;;;;5037681;28;20133;-79
2022/01/05 08:45:39;;;;;;;25.98;5.60;;;;;;;;;;5052897;28;20037;-79
2022/01/05 08:48:05;;;;;;;23.27;4.85;;;;;;;;;;5037077;28;20125;-79
2022/01/05 08:50:32;;;;;;;17.85;5.70;;;;;;;;;;5037526;28;20045;-79
2022/01/05 08:52:58;;;;;;;20.17;5.20;;;;;;;;;;5037623;28;20048;-80
2022/01/05 08:55:25;;;;;;;21.77;5.53;;;;;;;;;;5036344;28;20028;-78
2022/01/05 08:57:51;;;;;;;27.45;5.50;;;;;;;;;;5038687;28;20047;-78
2022/01/05 09:00:17;;;;;;;22.85;5.45;;;;;;;;;;5054509;28;20040;-78
2022/01/05 09:02:43;;;;;;;20.45;5.03;;;;;;;;;;5068790;28;20037;-79
2022/01/05 09:05:09;;;;;;;20.52;5.57;;;;;;;;;;5030393;28;20056;-82
2022/01/05 09:07:35;;;;;;;22.52;5.50;;;;;;;;;;5044473;28;20033;-80
2022/01/05 09:10:03;;;;;;;19.35;5.15;;;;;;;;;;5050460;28;20510;-81
2022/01/05 09:12:30;;;;;;;21.02;5.18;;;;;;;;;;5027739;28;20040;-79
2022/01/05 09:14:56;;;;;;;18.27;5.10;;;;;;;;;;5048377;28;20037;-81
2022/01/05 09:17:22;;;;;;;22.33;5.20;;;;;;;;;;5071641;28;20048;-79
2022/01/05 09:19:48;;;;;;;21.63;6.00;;;;;;;;;;5038699;28;20041;-80
2022/01/05 09:22:14;;;;;;;17.05;5.43;;;;;;;;;;5039147;28;20032;-80
2022/01/05 09:24:40;;;;;;;24.33;6.50;;;;;;;;;;5053244;28;20033;-79
2022/01/05 09:27:06;;;;;;;23.10;6.93;;;;;;;;;;5048427;28;20080;-80
2022/01/05 09:29:33;;;;;;;26.60;6.63;;;;;;;;;;5043320;28;20049;-78
2022/01/05 09:32:03;;;;;;;22.35;7.10;;;;;;;;;;5044317;28;20096;-77
2022/01/05 09:34:30;;;;;;;21.52;6.82;;;;;;;;;;5030498;28;20065;-80
2022/01/05 09:37:01;;;;;;;18.70;7.30;;;;;;;;;;5042949;28;20078;-79
2022/01/05 09:42:12;;;;;;;19.05;7.35;;;;;;;;;;5062010;28;20372;-79
2022/01/05 09:44:44;;;;;;;24.95;8.48;;;;;;;;;;5028773;28;20037;-80
2022/01/05 09:47:10;;;;;;;20.63;6.43;;;;;;;;;;5048108;28;20049;-80
2022/01/05 09:49:37;;;;;;;23.42;8.02;;;;;;;;;;5052767;28;20057;-79
2022/01/05 09:52:08;;;;;;;26.13;7.88;;;;;;;;;;5049738;28;20060;-80
2022/01/05 09:54:34;;;;;;;15.60;6.13;;;;;;;;;;5048705;28;20045;-78
2022/01/05 09:57:00;;;;;;;19.90;6.93;;;;;;;;;;5031484;28;20037;-80
2022/01/05 09:59:28;;;;;;;21.90;8.13;;;;;;;;;;5047425;28;20106;-79
2022/01/05 10:01:54;;;;;;;28.20;7.80;;;;;;;;;;5029578;28;20036;-79
2022/01/05 10:04:20;;;;;;;16.25;6.47;;;;;;;;;;5050608;28;20084;-78
2022/01/05 10:06:47;;;;;;;25.08;7.18;;;;;;;;;;5036224;28;20437;-80
2022/01/05 10:09:14;;;;;;;29.90;7.88;;;;;;;;;;5052387;28;20102;-79
2022/01/05 10:11:40;;;;;;;17.73;6.22;;;;;;;;;;5029888;28;20037;-80
2022/01/05 10:14:08;;;;;;;28.05;7.18;;;;;;;;;;5063569;28;20531;-79
2022/01/05 10:16:34;;;;;;;26.55;7.35;;;;;;;;;;5029502;28;20076;-79
2022/01/05 10:19:00;;;;;;;21.52;6.20;;;;;;;;;;5034891;28;20080;-80
2022/01/05 10:21:38;;;;;;;20.60;7.80;;;;;;;;;;5037819;28;20037;-80
2022/01/05 10:24:04;;;;;;;22.27;6.65;;;;;;;;;;5050522;28;20058;-79
2022/01/05 10:26:39;;;;;;;21.13;6.78;;;;;;;;;;5027056;28;20040;-79
2022/01/05 10:29:06;;;;;;;23.77;6.93;;;;;;;;;;5044071;28;20182;-80
2022/01/05 10:31:36;;;;;;;23.85;6.10;;;;;;;;;;5043991;28;20049;-79
2022/01/05 10:34:21;;;;;;;23.60;6.45;;;;;;;;;;5045584;28;20044;-79
2022/01/05 10:36:47;;;;;;;21.23;6.85;;;;;;;;;;5062568;28;20049;-79
2022/01/05 10:39:13;;;;;;;30.20;6.07;;;;;;;;;;5044920;28;20036;-78
2022/01/05 10:41:40;;;;;;;16.00;5.22;;;;;;;;;;5044969;28;20068;-80
2022/01/05 10:44:14;;;;;;;21.92;6.53;;;;;;;;;;5027216;28;20452;-78
2022/01/05 10:46:42;;;;;;;29.65;7.55;;;;;;;;;;5043498;28;20448;-79
2022/01/05 10:49:08;;;;;;;23.35;6.72;;;;;;;;;;5043491;28;20079;-78
2022/01/05 10:51:34;;;;;;;20.05;7.13;;;;;;;;;;5029233;28;20043;-79
2022/01/05 10:54:10;;;;;;;25.58;7.15;;;;;;;;;;5047062;28;20045;-80
2022/01/05 10:56:36;;;;;;;20.42;6.78;;;;;;;;;;5030890;28;20045;-81
2022/01/05 10:59:03;;;;;;;21.50;7.22;;;;;;;;;;5046663;28;20041;-79
2022/01/05 11:01:29;;;;;;;20.50;7.15;;;;;;;;;;5026160;28;20361;-79
2022/01/05 11:03:55;;;;;;;17.20;7.07;;;;;;;;;;5027842;28;20064;-80
2022/01/05 11:06:21;;;;;;;16.20;6.68;;;;;;;;;;5050689;28;20071;-80
2022/01/05 11:09:00;;;;;;;23.77;7.35;;;;;;;;;;5045208;28;20041;-79
2022/01/05 11:11:32;;;;;;;25.92;7.07;;;;;;;;;;5030463;28;20065;-79
2022/01/05 11:13:59;;;;;;;21.00;7.22;;;;;;;;;;5052189;28;20051;-79
2022/01/05 11:16:28;;;;;;;20.83;6.53;;;;;;;;;;5048345;28;20040;-79
2022/01/05 11:19:13;;;;;;;20.60;6.70;;;;;;;;;;5043688;28;20444;-79
2022/01/05 11:21:39;;;;;;;18.95;7.05;;;;;;;;;;5048337;28;20048;-80
2022/01/05 11:24:06;;;;;;;17.52;6.47;;;;;;;;;;5030645;28;20369;-79
2022/01/05 11:26:35;;;;;;;18.17;6.95;;;;;;;;;;5037774;28;20041;-81
2022/01/05 11:29:03;;;;;;;22.30;7.00;;;;;;;;;;5029696;28;20114;-79
2022/01/05 11:31:30;;;;;;;15.80;6.80;;;;;;;;;;5027514;28;20368;-80
2022/01/05 11:33:56;;;;;;;22.20;6.45;;;;;;;;;;5026808;28;20041;-80
2022/01/05 11:36:22;;;;;;;23.55;7.22;;;;;;;;;;5027628;28;20083;-81
2022/01/05 11:38:48;;;;;;;18.23;7.15;;;;;;;;;;5063040;28;20037;-80
2022/01/05 11:41:14;;;;;;;17.50;7.07;;;;;;;;;;5026482;28;20055;-80
2022/01/05 11:43:40;;;;;;;20.55;6.75;;;;;;;;;;5044787;28;20037;-82
2022/01/05 11:46:15;;;;;;;19.73;6.78;;;;;;;;;;5053024;28;20037;-80
2022/01/05 11:48:42;;;;;;;17.42;6.43;;;;;;;;;;5043385;28;20065;-80
2022/01/05 11:51:08;;;;;;;17.95;7.30;;;;;;;;;;5030079;28;20037;-81
2022/01/05 11:53:39;;;;;;;23.45;6.65;;;;;;;;;;5069809;28;20033;-80
2022/01/05 11:56:06;;;;;;;28.00;7.53;;;;;;;;;;5052889;28;20082;-81
2022/01/05 11:58:36;;;;;;;16.48;6.72;;;;;;;;;;5069018;28;20045;-80
2022/01/05 12:01:17;;;;;;;18.17;6.72;;;;;;;;;;5070874;28;20473;-80
2022/01/05 12:04:01;;;;;;;21.55;7.18;;;;;;;;;;5070150;28;20036;-80
2022/01/05 12:06:31;;;;;;;15.43;7.25;;;;;;;;;;5070031;28;20037;-80
2022/01/05 12:08:58;;;;;;;24.75;7.35;;;;;;;;;;5069633;28;20056;-80
2022/01/05 12:11:27;;;;;;;20.85;7.20;;;;;;;;;;5035536;28;20033;-79
2022/01/05 12:13:53;;;;;;;20.02;7.82;;;;;;;;;;5053112;28;20088;-79
2022/01/05 12:16:19;;;;;;;22.10;8.07;;;;;;;;;;5051170;28;20041;-80
2022/01/05 12:18:46;;;;;;;20.88;8.45;;;;;;;;;;5052525;28;20088;-80
2022/01/05 12:21:30;;;;;;;22.15;7.97;;;;;;;;;;5053222;28;20055;-79
2022/01/05 12:23:56;;;;;;;29.67;7.55;;;;;;;;;;5051052;28;20052;-80
2022/01/05 12:26:22;;;;;;;17.20;7.22;;;;;;;;;;5050858;28;20048;-79
2022/01/05 12:28:52;;;;;;;23.02;7.75;;;;;;;;;;5050448;28;20102;-80
2022/01/05 12:31:18;;;;;;;22.52;7.85;;;;;;;;;;5034745;28;20098;-80
2022/01/05 12:33:44;;;;;;;26.33;8.73;;;;;;;;;;5052342;28;20045;-79
2022/01/05 12:36:10;;;;;;;29.23;7.88;;;;;;;;;;5051577;28;20045;-80
2022/01/05 12:38:36;;;;;;;28.98;8.57;;;;;;;;;;5035651;28;20033;-79
2022/01/05 12:41:21;;;;;;;25.23;8.38;;;;;;;;;;5068978;28;20043;-80
2022/01/05 12:43:47;;;;;;;23.77;7.45;;;;;;;;;;5068714;28;20100;-80
2022/01/05 12:46:14;;;;;;;23.80;8.38;;;;;;;;;;5051801;28;20041;-80
2022/01/05 12:48:43;;;;;;;27.45;7.97;;;;;;;;;;5050413;28;20437;-81
2022/01/05 12:51:12;;;;;;;24.55;8.93;;;;;;;;;;5068990;28;20037;-82
2022/01/05 12:53:49;;;;;;;27.15;8.60;;;;;;;;;;5051545;28;20037;-80
2022/01/05 12:56:19;;;;;;;20.75;7.35;;;;;;;;;;5036588;28;20102;-80
2022/01/05 12:58:47;;;;;;;20.88;7.72;;;;;;;;;;5055063;28;20037;-80
2022/01/05 13:01:13;;;;;;;23.92;8.13;;;;;;;;;;5056441;28;20377;-81
2022/01/05 13:03:40;;;;;;;16.67;7.50;;;;;;;;;;5052246;28;20040;-80
2022/01/05 13:06:33;;;;;;;27.45;8.45;;;;;;;;;;5036462;28;20052;-80
2022/01/05 13:08:59;;;;;;;20.48;7.30;;;;;;;;;;5050624;28;20078;-78
2022/01/05 13:11:35;;;;;;;21.77;7.93;;;;;;;;;;5037231;28;20062;-80
2022/01/05 13:14:14;;;;;;;21.40;7.03;;;;;;;;;;5052205;28;20480;-80
2022/01/05 13:16:41;;;;;;;24.92;7.93;;;;;;;;;;5068526;28;20060;-79
2022/01/05 13:19:13;;;;;;;19.08;7.57;;;;;;;;;;5033595;28;20037;-80
2022/01/05 13:21:43;;;;;;;18.30;7.55;;;;;;;;;;5067933;28;20112;-80
2022/01/05 13:24:09;;;;;;;24.60;7.38;;;;;;;;;;5050864;28;20044;-81
2022/01/05 13:26:35;;;;;;;20.13;6.88;;;;;;;;;;5051651;28;20037;-80
2022/01/05 13:29:20;;;;;;;27.20;7.13;;;;;;;;;;5035975;28;20066;-79
2022/01/05 13:31:56;;;;;;;20.05;7.28;;;;;;;;;;5034681;28;20044;-79
2022/01/05 13:34:35;;;;;;;22.92;7.53;;;;;;;;;;5034587;28;20040;-80
2022/01/05 13:37:01;;;;;;;19.00;7.35;;;;;;;;;;5076249;28;20134;-79
2022/01/05 13:39:44;;;;;;;18.33;6.63;;;;;;;;;;5059440;28;20029;-80
2022/01/05 13:42:11;;;;;;;20.80;6.43;;;;;;;;;;5058834;28;20036;-79
2022/01/05 13:44:37;;;;;;;18.73;7.53;;;;;;;;;;5056000;28;20056;-80
2022/01/05 13:47:07;;;;;;;24.40;8.02;;;;;;;;;;5038394;28;20041;-79
2022/01/05 13:49:33;;;;;;;19.38;8.48;;;;;;;;;;5056512;28;20108;-80
2022/01/05 13:52:12;;;;;;;18.85;8.18;;;;;;;;;;5058436;28;20056;-81
2022/01/05 13:54:42;;;;;;;23.02;8.52;;;;;;;;;;5042609;28;20077;-80
2022/01/05 13:57:28;;;;;;;19.80;8.70;;;;;;;;;;5055917;28;20033;-81
2022/01/05 14:00:08;;;;;;;29.70;9.55;;;;;;;;;;5068307;28;20101;-80
2022/01/05 14:02:34;;;;;;;23.50;10.45;;;;;;;;;;5035403;28;20041;-81
2022/01/05 14:05:00;;;;;;;22.48;10.27;;;;;;;;;;5071046;28;20029;-79
2022/01/05 14:07:27;;;;;;;21.30;11.02;;;;;;;;;;5060150;28;20025;-79
2022/01/05 14:10:05;;;;;;;32.38;11.45;;;;;;;;;;5052188;28;20037;-80
2022/01/05 14:12:31;;;;;;;29.40;11.48;;;;;;;;;;5043627;28;20101;-80
2022/01/05 14:14:58;;;;;;;31.60;12.45;;;;;;;;;;5060855;28;20037;-80
2022/01/05 14:17:24;;;;;;;31.27;12.95;;;;;;;;;;5031063;28;20108;-80
2022/01/05 14:19:50;;;;;;;30.65;13.45;;;;;;;;;;5029060;28;20116;-80
2022/01/05 14:22:19;;;;;;;28.67;13.57;;;;;;;;;;5046383;28;20047;-81
2022/01/05 14:24:46;;;;;;;29.80;13.73;;;;;;;;;;5050607;28;20041;-80
2022/01/05 14:27:19;;;;;;;37.30;14.77;;;;;;;;;;5034518;28;20116;-80
2022/01/05 14:29:45;;;;;;;37.05;16.60;;;;;;;;;;5033312;28;20040;-80
2022/01/05 14:32:15;;;;;;;37.10;15.55;;;;;;;;;;5052369;28;20044;-80